Time;durP1;ratioP1;P1;durP2;ratioP2;P2;SDS_P1;SDS_P2;PMS_P1;PMS_P2;Temp;Humidity;BMP_temperature;BMP_pressure;BME280_temperature;BME280_humidity;BME280_pressure;Samples;Min_cycle;Max_cycle;Signal;HPM_P1;HPM_P2
2024/03/30 00:00:55;;;;;;;1.30;0.70;;;12.00;99.90;;;;;;5006302;28;20438;-46
2024/03/30 00:03:21;;;;;;;1.07;0.63;;;12.10;99.90;;;;;;4995299;28;20441;-47
2024/03/30 00:05:58;;;;;;;1.83;0.70;;;12.10;99.90;;;;;;5000008;28;20988;-47
2024/03/30 00:08:24;;;;;;;1.40;0.77;;;12.10;99.90;;;;;;4992718;28;20454;-47
2024/03/30 00:10:58;;;;;;;1.47;0.47;;;12.10;99.90;;;;;;4995363;28;20455;-47
2024/03/30 00:13:24;;;;;;;1.20;0.60;;;12.10;99.90;;;;;;5004260;28;20475;-47
2024/03/30 00:15:52;;;;;;;0.90;0.50;;;12.10;99.90;;;;;;4983696;28;20570;-47
2024/03/30 00:18:18;;;;;;;1.10;0.73;;;12.10;99.90;;;;;;4992960;28;20532;-47
2024/03/30 00:20:45;;;;;;;1.43;0.60;;;12.10;99.90;;;;;;5001027;28;20430;-47
2024/03/30 00:23:11;;;;;;;1.07;0.50;;;12.10;99.90;;;;;;4997786;28;20465;-46
2024/03/30 00:25:38;;;;;;;1.10;0.50;;;12.10;99.90;;;;;;5001098;28;21192;-47
2024/03/30 00:28:06;;;;;;;1.27;0.70;;;12.10;99.90;;;;;;4995774;28;20549;-47
2024/03/30 00:30:37;;;;;;;1.47;0.60;;;12.10;99.90;;;;;;4999278;28;20461;-47
2024/03/30 00:33:04;;;;;;;1.23;0.63;;;12.10;99.90;;;;;;5001318;28;20535;-46
2024/03/30 00:35:31;;;;;;;1.10;0.60;;;12.10;99.90;;;;;;4998538;28;20526;-47
2024/03/30 00:37:57;;;;;;;1.10;0.53;;;12.10;99.90;;;;;;5006443;28;20933;-47
2024/03/30 00:40:24;;;;;;;1.10;0.70;;;12.00;99.90;;;;;;4994852;28;20492;-46
2024/03/30 00:42:50;;;;;;;1.20;0.60;;;12.10;99.90;;;;;;4983333;28;20454;-47
2024/03/30 00:45:19;;;;;;;1.00;0.50;;;12.10;99.90;;;;;;5000623;28;20520;-47
2024/03/30 00:47:45;;;;;;;1.10;0.60;;;12.10;99.90;;;;;;5006613;28;20433;-46
2024/03/30 00:50:12;;;;;;;1.30;0.60;;;12.10;99.90;;;;;;4996083;28;20496;-47
2024/03/30 00:52:39;;;;;;;1.07;0.60;;;12.00;99.90;;;;;;4992202;28;20497;-46
2024/03/30 00:55:06;;;;;;;1.10;0.50;;;12.00;99.90;;;;;;5000264;28;20533;-47
2024/03/30 00:57:32;;;;;;;2.07;0.80;;;12.10;99.90;;;;;;4991374;28;20442;-47
2024/03/30 00:59:59;;;;;;;1.20;0.60;;;12.00;99.90;;;;;;4999418;28;20478;-47
2024/03/30 01:02:27;;;;;;;1.30;0.80;;;12.10;99.90;;;;;;5000030;28;20481;-46
2024/03/30 01:04:54;;;;;;;1.00;0.50;;;12.10;99.90;;;;;;4996664;28;20974;-47
2024/03/30 01:07:20;;;;;;;1.10;0.60;;;12.10;99.90;;;;;;5002247;28;20523;-47
2024/03/30 01:09:47;;;;;;;1.83;1.00;;;12.10;99.90;;;;;;4998967;28;20480;-47
2024/03/30 01:12:14;;;;;;;1.43;1.00;;;12.10;99.90;;;;;;5002041;28;20470;-47
2024/03/30 01:14:41;;;;;;;1.30;0.63;;;12.00;99.90;;;;;;4999804;28;20883;-47
2024/03/30 01:17:08;;;;;;;1.30;0.70;;;12.00;99.90;;;;;;4998761;28;20504;-47
2024/03/30 01:19:37;;;;;;;1.10;0.60;;;12.10;99.90;;;;;;4999580;28;20505;-46
2024/03/30 01:22:04;;;;;;;1.30;0.83;;;12.00;99.90;;;;;;4996772;28;20804;-46
2024/03/30 01:24:32;;;;;;;1.37;0.67;;;12.10;99.90;;;;;;4995495;28;20465;-47
2024/03/30 01:27:02;;;;;;;1.57;0.70;;;12.10;99.90;;;;;;4994530;28;20512;-46
2024/03/30 01:29:31;;;;;;;1.93;0.73;;;12.00;99.90;;;;;;4991681;28;20488;-46
2024/03/30 01:31:58;;;;;;;1.20;0.50;;;12.00;99.90;;;;;;4997420;28;20445;-47
2024/03/30 01:34:26;;;;;;;1.73;1.10;;;12.10;99.90;;;;;;4993730;28;20472;-47
2024/03/30 01:36:53;;;;;;;1.40;0.63;;;12.00;99.90;;;;;;4999479;28;20839;-47
2024/03/30 01:39:21;;;;;;;1.00;0.60;;;12.00;99.90;;;;;;4999465;28;20457;-46
2024/03/30 01:41:47;;;;;;;1.33;0.90;;;12.10;99.90;;;;;;4997636;28;20446;-47
2024/03/30 01:44:14;;;;;;;1.43;0.90;;;12.00;99.90;;;;;;4991048;28;20437;-46
2024/03/30 01:46:41;;;;;;;1.47;0.90;;;12.10;99.90;;;;;;4999162;28;20492;-47
2024/03/30 01:49:10;;;;;;;1.30;0.80;;;12.00;99.90;;;;;;4995762;28;20454;-47
2024/03/30 01:51:37;;;;;;;2.33;0.77;;;12.10;99.90;;;;;;4999382;28;20461;-47
2024/03/30 01:54:08;;;;;;;1.60;0.80;;;12.00;99.90;;;;;;4999265;28;20486;-47
2024/03/30 01:56:35;;;;;;;1.33;0.77;;;12.00;99.90;;;;;;4998713;28;20716;-46
2024/03/30 01:59:04;;;;;;;1.50;1.10;;;12.10;99.90;;;;;;5020375;28;20465;-46
2024/03/30 02:01:30;;;;;;;1.20;0.80;;;12.00;99.90;;;;;;4991848;28;20434;-47
2024/03/30 02:03:59;;;;;;;1.20;0.80;;;12.00;99.90;;;;;;4993382;28;20434;-47
2024/03/30 02:06:26;;;;;;;1.90;0.80;;;12.10;99.90;;;;;;5001494;28;20462;-47
2024/03/30 02:08:54;;;;;;;1.10;0.60;;;12.00;99.90;;;;;;4997358;28;20525;-46
2024/03/30 02:11:22;;;;;;;1.00;0.50;;;12.00;99.90;;;;;;5004277;28;20520;-47
2024/03/30 02:13:49;;;;;;;1.93;0.93;;;12.00;99.90;;;;;;4998482;28;20899;-46
2024/03/30 02:16:18;;;;;;;1.90;1.20;;;12.10;99.90;;;;;;4998995;28;20916;-47
2024/03/30 02:18:45;;;;;;;2.43;1.57;;;12.00;99.90;;;;;;4998130;28;20978;-47
2024/03/30 02:21:12;;;;;;;1.27;0.90;;;12.00;99.90;;;;;;4994897;28;20817;-47
2024/03/30 02:23:40;;;;;;;1.97;0.97;;;12.00;99.90;;;;;;4990848;28;20491;-46
2024/03/30 02:26:06;;;;;;;1.77;1.27;;;12.00;99.90;;;;;;4990701;28;20521;-47
2024/03/30 02:28:33;;;;;;;1.20;0.80;;;12.00;99.90;;;;;;4993961;28;20469;-47
2024/03/30 02:31:00;;;;;;;1.50;1.10;;;12.00;99.90;;;;;;4998391;28;20427;-47
2024/03/30 02:33:27;;;;;;;1.47;1.13;;;12.00;99.90;;;;;;5000279;28;20505;-46
2024/03/30 02:35:53;;;;;;;1.97;1.43;;;12.00;99.90;;;;;;4991729;28;20438;-46
2024/03/30 02:38:20;;;;;;;1.67;1.50;;;12.00;99.90;;;;;;4996433;28;20462;-47
2024/03/30 02:40:51;;;;;;;1.63;1.17;;;12.00;99.90;;;;;;4990392;28;20441;-47
2024/03/30 02:43:19;;;;;;;1.83;1.10;;;12.00;99.90;;;;;;4998770;28;20848;-46
2024/03/30 02:45:45;;;;;;;1.20;0.70;;;12.00;99.90;;;;;;4990828;28;20427;-47
2024/03/30 02:48:12;;;;;;;1.40;1.00;;;12.00;99.90;;;;;;4989921;28;20469;-46
2024/03/30 02:50:38;;;;;;;1.30;0.93;;;12.00;99.90;;;;;;4989858;28;20503;-47
2024/03/30 02:53:05;;;;;;;1.50;1.00;;;12.00;99.90;;;;;;4994684;28;20521;-46
2024/03/30 02:55:31;;;;;;;1.73;1.37;;;12.00;99.90;;;;;;4995829;28;20793;-47
2024/03/30 02:58:00;;;;;;;1.50;1.00;;;12.00;99.90;;;;;;4994183;28;20955;-46
2024/03/30 03:00:26;;;;;;;1.73;1.20;;;12.00;99.90;;;;;;4997110;28;20446;-46
2024/03/30 03:02:53;;;;;;;1.33;0.97;;;12.00;99.90;;;;;;4989725;28;20971;-47
2024/03/30 03:05:19;;;;;;;2.07;1.20;;;12.00;99.90;;;;;;4997874;28;20449;-47
2024/03/30 03:07:46;;;;;;;1.60;1.30;;;12.00;99.90;;;;;;4994219;28;20882;-46
2024/03/30 03:10:12;;;;;;;1.80;1.43;;;12.00;99.90;;;;;;4989556;28;20463;-47
2024/03/30 03:12:40;;;;;;;4.10;1.40;;;12.00;99.90;;;;;;4993511;28;20461;-46
2024/03/30 03:15:07;;;;;;;1.50;1.30;;;12.00;99.90;;;;;;4990240;28;20431;-47
2024/03/30 03:17:36;;;;;;;1.60;1.20;;;12.00;99.90;;;;;;4991464;28;20433;-46
2024/03/30 03:20:05;;;;;;;1.47;0.80;;;12.00;99.90;;;;;;4989225;28;20486;-47
2024/03/30 03:22:33;;;;;;;1.60;1.37;;;12.00;99.90;;;;;;4991368;28;20469;-47
2024/03/30 03:24:59;;;;;;;1.50;0.90;;;12.00;99.90;;;;;;4989941;28;20433;-47
2024/03/30 03:27:26;;;;;;;1.40;1.00;;;12.00;99.90;;;;;;4994035;28;20470;-47
2024/03/30 03:29:53;;;;;;;1.77;1.30;;;12.00;99.90;;;;;;4990304;28;20503;-46
2024/03/30 03:32:21;;;;;;;1.90;1.37;;;12.00;99.90;;;;;;4989758;28;20521;-47
2024/03/30 03:34:47;;;;;;;1.67;1.30;;;12.00;99.90;;;;;;4998313;28;20472;-46
2024/03/30 03:37:14;;;;;;;1.63;1.30;;;12.00;99.90;;;;;;4998673;28;20477;-47
2024/03/30 03:39:40;;;;;;;1.57;1.23;;;12.00;99.90;;;;;;4989609;28;20515;-46
2024/03/30 03:42:07;;;;;;;1.43;1.10;;;12.00;99.90;;;;;;4990502;28;20466;-47
2024/03/30 03:44:34;;;;;;;1.70;1.10;;;12.00;99.90;;;;;;4989534;28;20442;-47
2024/03/30 03:47:01;;;;;;;2.17;1.40;;;12.00;99.90;;;;;;4990406;28;20438;-46
2024/03/30 03:49:29;;;;;;;3.60;1.93;;;12.00;99.90;;;;;;4974442;28;20974;-47
2024/03/30 03:51:57;;;;;;;1.70;1.27;;;12.00;99.90;;;;;;4990126;28;20601;-47
2024/03/30 03:54:23;;;;;;;1.90;1.43;;;12.00;99.90;;;;;;4998231;28;20471;-47
2024/03/30 03:56:50;;;;;;;1.90;1.40;;;12.00;99.90;;;;;;4989352;28;20430;-47
2024/03/30 03:59:16;;;;;;;1.80;1.23;;;12.00;99.90;;;;;;4990680;28;20508;-46
2024/03/30 04:01:43;;;;;;;1.60;0.93;;;12.00;99.90;;;;;;4989569;28;20530;-46
2024/03/30 04:04:11;;;;;;;2.33;1.30;;;12.00;99.90;;;;;;5003540;28;20794;-47
2024/03/30 04:06:39;;;;;;;2.60;1.10;;;12.00;99.90;;;;;;5000259;28;20422;-47
2024/03/30 04:09:05;;;;;;;1.70;1.03;;;11.90;99.90;;;;;;5003209;28;21100;-47
2024/03/30 04:11:32;;;;;;;1.87;1.30;;;12.00;99.90;;;;;;5001469;28;20479;-48
2024/03/30 04:13:58;;;;;;;1.80;1.20;;;12.00;99.90;;;;;;5001310;28;20465;-49
2024/03/30 04:16:26;;;;;;;2.60;2.17;;;12.00;99.90;;;;;;4992924;28;20793;-48
2024/03/30 04:18:52;;;;;;;1.93;1.60;;;12.00;99.90;;;;;;4993273;28;20472;-47
2024/03/30 04:21:19;;;;;;;1.53;1.23;;;12.00;99.90;;;;;;4995199;28;20457;-49
2024/03/30 04:23:49;;;;;;;1.87;1.20;;;12.00;99.90;;;;;;4993308;28;20513;-47
2024/03/30 04:26:19;;;;;;;2.27;1.23;;;12.00;99.90;;;;;;4997026;28;20437;-48
2024/03/30 04:28:47;;;;;;;1.60;1.20;;;11.90;99.90;;;;;;4994290;28;20473;-47
2024/03/30 04:31:15;;;;;;;1.80;1.33;;;12.00;99.90;;;;;;4996589;28;20434;-47
2024/03/30 04:33:41;;;;;;;1.60;1.20;;;11.90;99.90;;;;;;4993026;28;20499;-48
2024/03/30 04:36:08;;;;;;;2.10;1.20;;;11.90;99.90;;;;;;4993220;28;20465;-47
2024/03/30 04:38:36;;;;;;;1.60;1.23;;;11.90;99.90;;;;;;4992673;28;20978;-47
2024/03/30 04:41:05;;;;;;;1.83;1.50;;;11.90;99.90;;;;;;4998036;28;20445;-47
2024/03/30 04:43:33;;;;;;;1.90;1.53;;;11.90;99.90;;;;;;4999264;28;20490;-48
2024/03/30 04:46:01;;;;;;;1.73;1.20;;;11.90;99.90;;;;;;4993234;28;20494;-46
2024/03/30 04:48:28;;;;;;;2.20;1.40;;;11.90;99.90;;;;;;4996948;28;20449;-50
2024/03/30 04:50:56;;;;;;;3.03;2.00;;;11.90;99.90;;;;;;4996914;28;20436;-47
2024/03/30 04:53:25;;;;;;;2.03;1.40;;;11.90;99.90;;;;;;5004914;28;20484;-47
2024/03/30 04:55:53;;;;;;;2.13;1.23;;;11.90;99.90;;;;;;4993269;28;20423;-47
2024/03/30 04:58:22;;;;;;;3.00;1.70;;;11.90;99.90;;;;;;5003304;28;20977;-48
2024/03/30 05:00:49;;;;;;;2.00;1.40;;;11.90;99.90;;;;;;5003009;28;20977;-47
2024/03/30 05:03:15;;;;;;;2.20;1.80;;;11.90;99.90;;;;;;4999898;28;20437;-48
2024/03/30 05:05:44;;;;;;;2.13;1.33;;;11.90;99.90;;;;;;4992396;28;20526;-51
2024/03/30 05:08:10;;;;;;;1.57;1.20;;;11.90;99.90;;;;;;4997258;28;20517;-48
2024/03/30 05:10:38;;;;;;;2.93;1.40;;;11.90;99.90;;;;;;4991982;28;20795;-46
2024/03/30 05:13:08;;;;;;;2.00;1.80;;;11.90;99.90;;;;;;5007584;28;20795;-46
2024/03/30 05:15:38;;;;;;;2.40;1.77;;;11.90;99.90;;;;;;4996701;28;20476;-47
2024/03/30 05:18:05;;;;;;;1.90;1.40;;;11.90;99.90;;;;;;4991803;28;21000;-46
2024/03/30 05:20:51;;;;;;;2.23;1.37;;;11.90;99.90;;;;;;5000830;28;20989;-47
2024/03/30 05:23:18;;;;;;;1.70;1.40;;;11.90;99.90;;;;;;5003613;28;20453;-46
2024/03/30 05:25:45;;;;;;;2.03;1.67;;;11.90;99.90;;;;;;4995595;28;20442;-46
2024/03/30 05:28:13;;;;;;;1.27;0.93;;;11.90;99.90;;;;;;4996539;28;20477;-47
2024/03/30 05:30:41;;;;;;;1.40;0.90;;;11.90;99.90;;;;;;4998594;28;20858;-46
2024/03/30 05:33:08;;;;;;;1.50;1.00;;;11.90;99.90;;;;;;5002967;28;20577;-46
2024/03/30 05:35:49;;;;;;;1.70;1.20;;;11.90;99.90;;;;;;4992168;28;20426;-47
2024/03/30 05:38:16;;;;;;;1.93;1.17;;;11.90;99.90;;;;;;4992053;28;20437;-47
2024/03/30 05:40:45;;;;;;;1.47;0.97;;;11.90;99.90;;;;;;4991222;28;20977;-47
2024/03/30 05:43:11;;;;;;;1.40;0.80;;;11.90;99.90;;;;;;4994426;28;20449;-46
2024/03/30 05:45:42;;;;;;;2.27;1.60;;;11.90;99.90;;;;;;4991927;28;20521;-47
2024/03/30 05:48:10;;;;;;;1.60;1.10;;;11.90;99.90;;;;;;4991626;28;20433;-46
2024/03/30 05:50:37;;;;;;;1.53;1.13;;;11.90;99.90;;;;;;4998365;28;20449;-46
2024/03/30 05:53:04;;;;;;;1.93;1.20;;;11.90;99.90;;;;;;4995464;28;20996;-46
2024/03/30 05:55:31;;;;;;;1.90;1.10;;;11.90;99.90;;;;;;4991513;28;20461;-47
2024/03/30 05:58:03;;;;;;;2.03;1.40;;;11.80;99.90;;;;;;5003352;28;20449;-47
2024/03/30 06:00:31;;;;;;;1.90;1.40;;;11.90;99.90;;;;;;4993116;28;20524;-46
2024/03/30 06:02:59;;;;;;;2.03;1.20;;;11.90;99.90;;;;;;4991460;28;20792;-46
2024/03/30 06:05:26;;;;;;;1.73;1.03;;;11.90;99.90;;;;;;4992061;28;20787;-46
2024/03/30 06:07:52;;;;;;;2.17;0.73;;;11.90;99.90;;;;;;4993352;28;21018;-47
2024/03/30 06:10:20;;;;;;;1.80;1.47;;;11.90;99.90;;;;;;4992794;28;20449;-47
2024/03/30 06:12:46;;;;;;;2.10;1.60;;;11.90;99.90;;;;;;4994122;28;20452;-46
2024/03/30 06:15:13;;;;;;;3.40;1.60;;;11.90;99.90;;;;;;4994486;28;20556;-46
2024/03/30 06:17:39;;;;;;;1.80;1.10;;;11.90;99.90;;;;;;4992789;28;20888;-46
2024/03/30 06:20:09;;;;;;;2.13;1.47;;;11.90;99.90;;;;;;4993748;28;20870;-46
2024/03/30 06:22:36;;;;;;;1.80;1.23;;;11.90;99.90;;;;;;4999027;28;20437;-46
2024/03/30 06:25:04;;;;;;;1.63;0.87;;;11.90;99.90;;;;;;4994892;28;20442;-47
2024/03/30 06:27:31;;;;;;;1.70;0.97;;;11.90;99.90;;;;;;4992616;28;20495;-47
2024/03/30 06:29:59;;;;;;;1.63;1.13;;;11.80;99.90;;;;;;4994528;28;20499;-47
2024/03/30 06:32:25;;;;;;;1.47;1.00;;;11.90;99.90;;;;;;4990578;28;20462;-46
2024/03/30 06:34:52;;;;;;;3.50;1.50;;;11.90;99.90;;;;;;4990315;28;20454;-47
2024/03/30 06:37:20;;;;;;;3.07;1.00;;;11.90;99.90;;;;;;4995278;28;20430;-47
2024/03/30 06:45:17;;;;;;;2.70;1.40;;;11.90;99.90;;;;;;4990488;28;20433;-46
2024/03/30 06:47:44;;;;;;;1.83;1.07;;;11.90;99.90;;;;;;4996191;28;20450;-47
2024/03/30 06:50:11;;;;;;;2.63;1.40;;;11.90;99.90;;;;;;4989496;28;20460;-47
2024/03/30 06:52:39;;;;;;;2.03;0.90;;;11.80;99.90;;;;;;4989769;28;20452;-46
2024/03/30 06:55:07;;;;;;;4.23;1.17;;;11.90;99.90;;;;;;4994443;28;20528;-46
2024/03/30 06:57:34;;;;;;;1.80;0.80;;;11.90;99.90;;;;;;4996843;28;20521;-46
2024/03/30 07:00:02;;;;;;;1.60;0.93;;;11.80;99.90;;;;;;4989870;28;20526;-46
2024/03/30 07:02:30;;;;;;;1.50;1.10;;;11.90;99.90;;;;;;5006086;28;20426;-46
2024/03/30 07:04:56;;;;;;;2.33;1.30;;;11.90;99.90;;;;;;4990035;28;20450;-46
2024/03/30 07:07:23;;;;;;;2.57;1.30;;;11.90;99.90;;;;;;4997170;28;20453;-47
2024/03/30 07:09:51;;;;;;;1.80;1.10;;;11.80;99.90;;;;;;4990556;28;20523;-46
2024/03/30 07:12:18;;;;;;;2.93;1.10;;;11.90;99.90;;;;;;4991378;28;20233;-47
2024/03/30 07:14:44;;;;;;;2.57;1.30;;;11.80;99.90;;;;;;4998929;28;20613;-46
2024/03/30 07:17:11;;;;;;;2.80;0.97;;;11.80;99.90;;;;;;4990004;28;20438;-46
2024/03/30 07:19:39;;;;;;;3.87;1.10;;;11.80;99.90;;;;;;4996830;28;20555;-47
2024/03/30 07:22:06;;;;;;;1.80;1.27;;;11.90;99.90;;;;;;4998445;28;20946;-47
2024/03/30 07:24:33;;;;;;;2.03;1.40;;;11.90;99.90;;;;;;4991790;28;20516;-47
2024/03/30 07:27:01;;;;;;;2.77;1.30;;;11.90;99.90;;;;;;4998367;28;20518;-46
2024/03/30 07:29:27;;;;;;;2.80;1.30;;;11.90;99.90;;;;;;4994333;28;20449;-46
2024/03/30 07:31:56;;;;;;;3.17;1.13;;;11.80;99.90;;;;;;4989585;28;20414;-46
2024/03/30 07:34:22;;;;;;;1.87;1.37;;;11.80;99.90;;;;;;4997371;28;20878;-47
2024/03/30 07:36:50;;;;;;;6.20;1.60;;;11.80;99.90;;;;;;4990122;28;20523;-46
2024/03/30 07:39:16;;;;;;;4.63;1.03;;;11.80;99.90;;;;;;4998689;28;20461;-46
2024/03/30 07:41:43;;;;;;;2.30;1.30;;;11.90;99.90;;;;;;4992599;28;21002;-47
2024/03/30 07:44:11;;;;;;;3.00;1.43;;;11.90;99.90;;;;;;4981980;28;20426;-46
2024/03/30 07:46:38;;;;;;;2.37;1.20;;;11.90;99.90;;;;;;4994709;28;20445;-46
2024/03/30 07:49:04;;;;;;;1.70;0.97;;;11.90;99.90;;;;;;4993237;28;20453;-46
2024/03/30 07:51:34;;;;;;;2.77;1.10;;;11.90;99.90;;;;;;4993387;28;20537;-46
2024/03/30 07:54:00;;;;;;;2.97;1.20;;;11.90;99.90;;;;;;4993921;28;20500;-47
2024/03/30 07:56:27;;;;;;;1.20;0.70;;;11.90;99.90;;;;;;5002594;28;20520;-46
2024/03/30 07:58:53;;;;;;;2.77;1.20;;;11.90;99.90;;;;;;5001231;28;20461;-46
2024/03/30 08:01:24;;;;;;;2.23;0.83;;;11.90;99.90;;;;;;5004236;28;20429;-47
2024/03/30 08:03:50;;;;;;;1.33;0.70;;;11.90;99.90;;;;;;5004943;28;20820;-47
2024/03/30 08:06:20;;;;;;;1.20;0.70;;;11.90;99.90;;;;;;5003101;28;20744;-46
2024/03/30 08:08:47;;;;;;;1.80;0.67;;;11.90;99.90;;;;;;4996401;28;20835;-48
2024/03/30 08:11:14;;;;;;;1.50;0.77;;;11.90;99.90;;;;;;5000655;28;20421;-49
2024/03/30 08:13:40;;;;;;;1.40;0.70;;;11.90;99.90;;;;;;4996590;28;20452;-47
2024/03/30 08:16:07;;;;;;;5.13;1.10;;;11.90;99.90;;;;;;4998392;28;20459;-47
2024/03/30 08:18:35;;;;;;;4.70;0.67;;;11.90;99.90;;;;;;5004558;28;20575;-47
2024/03/30 08:21:03;;;;;;;1.30;0.63;;;11.90;99.90;;;;;;4999500;28;20465;-48
2024/03/30 08:23:29;;;;;;;3.70;0.90;;;11.90;99.90;;;;;;5002609;28;20520;-47
2024/03/30 08:25:57;;;;;;;4.03;0.70;;;11.90;99.90;;;;;;4992689;28;20425;-48
2024/03/30 08:28:23;;;;;;;2.47;1.03;;;11.90;99.90;;;;;;4998273;28;21027;-46
2024/03/30 08:30:51;;;;;;;2.23;1.00;;;11.90;99.90;;;;;;4993615;28;20541;-48
2024/03/30 08:33:17;;;;;;;6.70;1.17;;;11.90;99.90;;;;;;5006339;28;20818;-47
2024/03/30 08:35:53;;;;;;;1.70;1.07;;;11.90;99.90;;;;;;4997849;28;20561;-48
2024/03/30 08:38:20;;;;;;;5.90;1.50;;;11.90;99.90;;;;;;5001671;28;20486;-47
2024/03/30 08:40:48;;;;;;;2.70;1.13;;;11.90;99.90;;;;;;4999923;28;20944;-48
2024/03/30 08:43:14;;;;;;;2.00;1.10;;;11.90;99.90;;;;;;4997105;28;20434;-48
2024/03/30 08:45:44;;;;;;;2.33;1.07;;;11.90;99.90;;;;;;4999617;28;20463;-48
2024/03/30 08:48:12;;;;;;;3.30;1.00;;;11.90;99.90;;;;;;4998748;28;20442;-47
2024/03/30 08:50:40;;;;;;;2.20;1.00;;;11.90;99.90;;;;;;5003276;28;20488;-47
2024/03/30 08:53:08;;;;;;;5.60;1.57;;;11.90;99.90;;;;;;5000011;28;20528;-47
2024/03/30 08:55:37;;;;;;;2.93;1.20;;;11.90;99.90;;;;;;4993524;28;20557;-47
2024/03/30 08:58:06;;;;;;;3.23;1.50;;;11.90;99.90;;;;;;4997843;28;20818;-50
2024/03/30 09:00:34;;;;;;;2.93;1.30;;;12.00;99.90;;;;;;4998247;28;20481;-47
2024/03/30 09:03:00;;;;;;;1.87;1.00;;;12.00;99.90;;;;;;4999347;28;20530;-47
2024/03/30 09:05:28;;;;;;;3.17;1.40;;;12.00;99.90;;;;;;4998727;28;21019;-47
2024/03/30 09:07:54;;;;;;;11.37;2.33;;;12.00;99.90;;;;;;4998287;28;20830;-47
2024/03/30 09:10:27;;;;;;;3.17;1.40;;;12.00;99.90;;;;;;5005578;28;20453;-47
2024/03/30 09:12:53;;;;;;;2.27;0.87;;;12.00;99.90;;;;;;4999270;28;20445;-46
2024/03/30 09:15:20;;;;;;;8.10;2.23;;;12.00;99.90;;;;;;5007558;28;20544;-46
2024/03/30 09:17:46;;;;;;;6.20;1.60;;;12.00;99.90;;;;;;5001925;28;20441;-47
2024/03/30 09:20:14;;;;;;;3.63;1.40;;;12.00;99.90;;;;;;5002038;28;20504;-48
2024/03/30 09:22:42;;;;;;;5.03;1.57;;;12.00;99.90;;;;;;4995983;28;20480;-47
2024/03/30 09:25:13;;;;;;;5.00;1.97;;;12.00;99.90;;;;;;4997970;28;20441;-49
2024/03/30 09:27:41;;;;;;;10.50;2.53;;;12.00;99.90;;;;;;5001351;28;20975;-47
2024/03/30 09:30:10;;;;;;;3.20;1.10;;;12.00;99.90;;;;;;4998278;28;20541;-46
2024/03/30 09:32:39;;;;;;;10.13;3.70;;;12.10;99.90;;;;;;4996141;28;20999;-48
2024/03/30 09:35:07;;;;;;;7.10;1.70;;;12.10;99.90;;;;;;4991680;28;20633;-46
2024/03/30 09:37:33;;;;;;;7.50;3.00;;;12.10;99.90;;;;;;5001285;28;20433;-47
2024/03/30 09:40:00;;;;;;;12.50;2.50;;;12.10;99.90;;;;;;4992920;28;20478;-46
2024/03/30 09:42:30;;;;;;;7.80;2.53;;;12.10;99.90;;;;;;4994582;28;20490;-48
2024/03/30 09:44:59;;;;;;;9.40;2.33;;;12.10;99.90;;;;;;5005626;28;20931;-47
2024/03/30 09:47:28;;;;;;;4.87;1.90;;;12.10;99.90;;;;;;4996035;28;20436;-47
2024/03/30 09:49:59;;;;;;;7.60;1.87;;;12.10;99.90;;;;;;4994686;28;20544;-49
2024/03/30 09:52:27;;;;;;;17.53;3.00;;;12.10;99.90;;;;;;5001720;28;20433;-47
2024/03/30 09:54:59;;;;;;;15.73;3.03;;;12.20;99.90;;;;;;4997754;28;20450;-48
2024/03/30 09:57:26;;;;;;;12.20;2.60;;;12.30;99.90;;;;;;4999367;28;20920;-48
2024/03/30 09:59:53;;;;;;;10.00;3.90;;;12.30;99.90;;;;;;4992975;28;20458;-48
2024/03/30 10:02:21;;;;;;;10.53;2.80;;;12.20;99.90;;;;;;4995964;28;20947;-47
2024/03/30 10:04:48;;;;;;;13.60;2.70;;;12.20;99.90;;;;;;4992944;28;20469;-47
2024/03/30 10:07:23;;;;;;;6.67;2.73;;;12.20;99.90;;;;;;4997020;28;20806;-47
2024/03/30 10:09:55;;;;;;;8.87;3.30;;;12.20;99.90;;;;;;5001140;28;20511;-47
2024/03/30 10:12:30;;;;;;;10.80;2.90;;;12.20;99.90;;;;;;4996897;28;20854;-47
2024/03/30 10:15:00;;;;;;;9.50;3.07;;;12.20;99.90;;;;;;4996900;28;20551;-47
2024/03/30 10:17:27;;;;;;;11.77;4.23;;;12.10;99.90;;;;;;4999694;28;20527;-47
2024/03/30 10:19:57;;;;;;;16.40;3.63;;;12.20;99.90;;;;;;4995821;28;20468;-47
2024/03/30 10:22:25;;;;;;;11.87;3.20;;;12.20;99.90;;;;;;4995921;28;21012;-47
2024/03/30 10:24:52;;;;;;;10.27;3.33;;;12.20;99.90;;;;;;4991298;28;20516;-47
2024/03/30 10:27:18;;;;;;;24.80;4.53;;;12.20;99.90;;;;;;4992371;28;20536;-49
2024/03/30 10:29:46;;;;;;;12.83;2.80;;;12.20;99.90;;;;;;5000136;28;20553;-46
2024/03/30 10:32:12;;;;;;;15.30;4.27;;;12.20;99.90;;;;;;4983290;28;20462;-47
2024/03/30 10:34:41;;;;;;;8.90;2.37;;;12.10;99.90;;;;;;4992921;28;20469;-47
2024/03/30 10:37:07;;;;;;;15.60;3.00;;;12.20;99.90;;;;;;4994612;28;20433;-48
2024/03/30 10:39:34;;;;;;;5.60;2.73;;;12.20;99.90;;;;;;4992738;28;20461;-48
2024/03/30 10:42:01;;;;;;;9.13;3.20;;;12.10;99.90;;;;;;4990617;28;20441;-47
2024/03/30 10:44:29;;;;;;;7.97;2.83;;;12.10;99.90;;;;;;4997885;28;20806;-46
2024/03/30 10:46:56;;;;;;;18.27;3.60;;;12.10;99.90;;;;;;4994224;28;20437;-48
2024/03/30 10:49:25;;;;;;;9.63;3.30;;;12.10;99.90;;;;;;4995618;28;21029;-47
2024/03/30 10:51:52;;;;;;;9.33;3.53;;;12.10;99.90;;;;;;4998459;28;20791;-48
2024/03/30 10:54:20;;;;;;;13.20;3.73;;;12.10;99.90;;;;;;4994012;28;20980;-49
2024/03/30 10:56:47;;;;;;;14.90;3.80;;;12.10;99.90;;;;;;4985203;28;20458;-48
2024/03/30 10:59:17;;;;;;;9.13;3.30;;;12.10;99.90;;;;;;4997029;28;20468;-49
2024/03/30 11:01:46;;;;;;;12.00;3.10;;;12.10;99.90;;;;;;4998183;28;20475;-48
2024/03/30 11:04:16;;;;;;;7.50;2.73;;;12.10;99.90;;;;;;4997609;28;20520;-47
2024/03/30 11:06:44;;;;;;;12.53;3.50;;;12.10;99.90;;;;;;4998558;28;20441;-47
2024/03/30 11:09:14;;;;;;;11.70;3.20;;;12.10;99.90;;;;;;4993369;28;20528;-48
2024/03/30 11:11:41;;;;;;;8.00;2.60;;;12.10;99.90;;;;;;5001234;28;20441;-50
2024/03/30 11:14:08;;;;;;;10.33;3.03;;;12.10;99.90;;;;;;4993803;28;20458;-47
2024/03/30 11:16:38;;;;;;;12.20;3.23;;;12.00;99.90;;;;;;5001627;28;20452;-47
2024/03/30 11:19:11;;;;;;;11.20;2.70;;;12.10;99.90;;;;;;4999359;28;20495;-47
2024/03/30 11:21:45;;;;;;;8.80;2.73;;;12.10;99.90;;;;;;4999161;28;20811;-47
2024/03/30 11:24:17;;;;;;;8.83;3.53;;;12.10;99.90;;;;;;4998287;28;20461;-47
2024/03/30 11:26:51;;;;;;;15.00;4.07;;;12.10;99.90;;;;;;4998004;28;20433;-46
2024/03/30 11:29:30;;;;;;;12.17;2.80;;;12.10;99.90;;;;;;5002787;28;20468;-47
2024/03/30 11:32:07;;;;;;;12.10;3.67;;;12.00;99.90;;;;;;5001641;28;20453;-46
2024/03/30 11:34:47;;;;;;;12.37;3.17;;;12.10;99.90;;;;;;5004197;28;20429;-47
2024/03/30 11:37:22;;;;;;;13.17;3.40;;;12.10;99.90;;;;;;5001984;28;20438;-48
2024/03/30 11:40:02;;;;;;;8.57;3.00;;;12.10;99.90;;;;;;4997991;28;20940;-47
2024/03/30 11:42:37;;;;;;;4.77;2.70;;;12.10;99.90;;;;;;5004042;28;20524;-48
2024/03/30 11:45:08;;;;;;;8.13;2.80;;;12.10;99.90;;;;;;5004560;28;20437;-47
2024/03/30 11:47:35;;;;;;;7.27;2.90;;;12.10;99.90;;;;;;5011408;28;20502;-51
2024/03/30 11:50:02;;;;;;;5.67;2.13;;;12.10;99.90;;;;;;5005073;28;20454;-47
2024/03/30 11:52:29;;;;;;;5.53;2.90;;;12.10;99.90;;;;;;5002273;28;20433;-48
2024/03/30 11:54:57;;;;;;;12.10;3.57;;;12.10;99.90;;;;;;4998029;28;20556;-48
2024/03/30 11:57:25;;;;;;;11.20;3.63;;;12.20;99.90;;;;;;4998574;28;20444;-46
2024/03/30 11:59:54;;;;;;;11.87;3.33;;;12.20;99.90;;;;;;4998720;28;20529;-47
2024/03/30 12:02:22;;;;;;;12.53;3.67;;;12.20;99.90;;;;;;5000232;28;20442;-47
2024/03/30 12:04:49;;;;;;;8.30;3.20;;;12.20;99.90;;;;;;5000002;28;20435;-46
2024/03/30 12:07:16;;;;;;;13.70;4.40;;;12.20;99.90;;;;;;5005158;28;20467;-47
2024/03/30 12:09:44;;;;;;;13.00;3.77;;;12.20;99.90;;;;;;4994838;28;20465;-47
2024/03/30 12:12:17;;;;;;;14.53;4.13;;;12.10;99.90;;;;;;4996743;28;20541;-47
2024/03/30 12:14:47;;;;;;;8.73;3.30;;;12.10;99.90;;;;;;4995432;28;20520;-50
2024/03/30 12:17:13;;;;;;;9.93;2.67;;;12.10;99.90;;;;;;4999029;28;21067;-48
2024/03/30 12:19:41;;;;;;;8.50;3.20;;;12.10;99.90;;;;;;4995766;28;20839;-51
2024/03/30 12:22:08;;;;;;;11.87;3.37;;;12.10;99.90;;;;;;5001523;28;20961;-47
2024/03/30 12:24:35;;;;;;;13.53;4.10;;;12.10;99.90;;;;;;5003420;28;20535;-47
2024/03/30 12:27:02;;;;;;;9.03;3.00;;;12.10;99.90;;;;;;4995267;28;21001;-48
2024/03/30 12:29:30;;;;;;;10.97;2.97;;;12.10;99.90;;;;;;4999372;28;20507;-49
2024/03/30 12:31:57;;;;;;;11.80;2.90;;;12.10;99.90;;;;;;4994973;28;20434;-47
2024/03/30 12:34:25;;;;;;;9.37;2.70;;;12.10;99.90;;;;;;4992405;28;20540;-48
2024/03/30 12:36:54;;;;;;;9.23;2.80;;;12.20;99.90;;;;;;5005935;28;20515;-48
2024/03/30 12:39:22;;;;;;;6.40;2.90;;;12.20;99.90;;;;;;4992756;28;20453;-47
2024/03/30 12:41:48;;;;;;;3.80;2.13;;;12.20;99.90;;;;;;5004086;28;20551;-47
2024/03/30 12:44:15;;;;;;;9.30;2.73;;;12.20;99.90;;;;;;4993682;28;20480;-48
2024/03/30 12:46:43;;;;;;;8.03;3.00;;;12.20;99.90;;;;;;4996001;28;20485;-46
2024/03/30 12:49:10;;;;;;;10.23;2.87;;;12.20;99.90;;;;;;4994740;28;20456;-47
2024/03/30 12:51:36;;;;;;;13.20;2.33;;;12.20;99.90;;;;;;4994543;28;20488;-48
2024/03/30 12:54:06;;;;;;;7.90;2.20;;;12.20;99.90;;;;;;4995336;28;20447;-46